sensor_id;sensor_type;location;lat;lon;timestamp;pressure;altitude;pressure_sealevel;temperature;humidity
34983;BME280;21187;50.976;13.720;2022-09-03T00:02:18;98417.53;;;18.34;40.60
34983;BME280;21187;50.976;13.720;2022-09-03T00:07:38;98417.53;;;18.38;40.74
34983;BME280;21187;50.976;13.720;2022-09-03T00:12:45;98403.84;;;18.34;40.90
34983;BME280;21187;50.976;13.720;2022-09-03T00:17:52;98396.81;;;18.29;41.09
34983;BME280;21187;50.976;13.720;2022-09-03T00:22:59;98397.59;;;18.26;41.16
34983;BME280;21187;50.976;13.720;2022-09-03T00:28:16;98392.91;;;18.20;41.45
34983;BME280;21187;50.976;13.720;2022-09-03T00:33:22;98381.22;;;18.12;41.25
34983;BME280;21187;50.976;13.720;2022-09-03T00:38:25;98389.81;;;18.03;41.46
34983;BME280;21187;50.976;13.720;2022-09-03T01:00:21;98375.72;;;17.87;41.35
34983;BME280;21187;50.976;13.720;2022-09-03T01:48:42;98389.81;;;17.31;42.34
34983;BME280;21187;50.976;13.720;2022-09-03T02:04:24;98396.03;;;17.06;42.79
34983;BME280;21187;50.976;13.720;2022-09-03T02:09:27;98396.03;;;16.99;42.88
34983;BME280;21187;50.976;13.720;2022-09-03T02:14:34;98384.66;;;16.90;43.12
34983;BME280;21187;50.976;13.720;2022-09-03T02:19:37;98389.66;;;16.73;43.13
34983;BME280;21187;50.976;13.720;2022-09-03T02:24:40;98385.72;;;16.63;43.35
34983;BME280;21187;50.976;13.720;2022-09-03T02:29:42;98389.59;;;16.55;43.37
34983;BME280;21187;50.976;13.720;2022-09-03T02:34:44;98391.94;;;16.50;43.50
34983;BME280;21187;50.976;13.720;2022-09-03T02:39:46;98394.19;;;16.40;43.58
34983;BME280;21187;50.976;13.720;2022-09-03T02:44:52;98393.41;;;16.36;43.74
34983;BME280;21187;50.976;13.720;2022-09-03T02:49:56;98389.84;;;16.28;43.82
34983;BME280;21187;50.976;13.720;2022-09-03T02:54:58;98393.28;;;16.14;44.02
34983;BME280;21187;50.976;13.720;2022-09-03T02:59:59;98389.38;;;16.12;43.89
34983;BME280;21187;50.976;13.720;2022-09-03T03:05:02;98382.31;;;16.07;44.19
34983;BME280;21187;50.976;13.720;2022-09-03T03:10:05;98380.72;;;16.03;44.10
34983;BME280;21187;50.976;13.720;2022-09-03T03:15:07;98372.47;;;15.95;44.00
34983;BME280;21187;50.976;13.720;2022-09-03T03:20:09;98371.28;;;15.89;44.25
34983;BME280;21187;50.976;13.720;2022-09-03T03:25:11;98366.56;;;15.83;44.26
34983;BME280;21187;50.976;13.720;2022-09-03T03:30:13;98372.31;;;15.74;44.68
34983;BME280;21187;50.976;13.720;2022-09-03T03:35:15;98378.94;;;15.69;44.69
34983;BME280;21187;50.976;13.720;2022-09-03T03:40:17;98378.09;;;15.65;44.79
34983;BME280;21187;50.976;13.720;2022-09-03T03:45:20;98377.28;;;15.61;44.89
34983;BME280;21187;50.976;13.720;2022-09-03T03:50:22;98377.25;;;15.54;44.92
34983;BME280;21187;50.976;13.720;2022-09-03T03:55:24;98373.28;;;15.47;44.85
34983;BME280;21187;50.976;13.720;2022-09-03T04:00:27;98378.25;;;15.35;44.82
34983;BME280;21187;50.976;13.720;2022-09-03T04:05:29;98370.78;;;15.28;45.07
34983;BME280;21187;50.976;13.720;2022-09-03T04:10:35;98366.91;;;15.29;45.15
34983;BME280;21187;50.976;13.720;2022-09-03T04:15:37;98370.75;;;15.24;45.39
34983;BME280;21187;50.976;13.720;2022-09-03T04:20:39;98366.41;;;15.20;45.58
34983;BME280;21187;50.976;13.720;2022-09-03T04:25:41;98363.63;;;15.12;45.37
34983;BME280;21187;50.976;13.720;2022-09-03T04:30:44;98365.13;;;15.06;45.86
34983;BME280;21187;50.976;13.720;2022-09-03T04:35:49;98355.00;;;15.07;45.55
34983;BME280;21187;50.976;13.720;2022-09-03T04:40:51;98362.78;;;15.08;46.00
34983;BME280;21187;50.976;13.720;2022-09-03T04:46:01;98356.59;;;15.11;45.88
34983;BME280;21187;50.976;13.720;2022-09-03T04:51:13;98355.84;;;15.14;45.71
34983;BME280;21187;50.976;13.720;2022-09-03T04:56:24;98367.19;;;15.17;46.05
34983;BME280;21187;50.976;13.720;2022-09-03T05:01:27;98373.84;;;15.19;46.03
34983;BME280;21187;50.976;13.720;2022-09-03T05:06:31;98369.22;;;15.27;45.94
34983;BME280;21187;50.976;13.720;2022-09-03T05:11:34;98358.38;;;15.34;45.88
34983;BME280;21187;50.976;13.720;2022-09-03T05:16:36;98354.56;;;15.46;46.03
34983;BME280;21187;50.976;13.720;2022-09-03T05:21:38;98365.97;;;15.59;46.28
34983;BME280;21187;50.976;13.720;2022-09-03T05:26:40;98361.38;;;15.70;46.10
34983;BME280;21187;50.976;13.720;2022-09-03T05:31:42;98360.28;;;15.78;45.98
34983;BME280;21187;50.976;13.720;2022-09-03T05:36:44;98358.03;;;15.88;45.80
34983;BME280;21187;50.976;13.720;2022-09-03T05:41:47;98372.13;;;16.01;45.80
34983;BME280;21187;50.976;13.720;2022-09-03T05:46:51;98373.75;;;16.12;45.83
34983;BME280;21187;50.976;13.720;2022-09-03T05:51:54;98371.47;;;16.22;45.95
34983;BME280;21187;50.976;13.720;2022-09-03T05:56:56;98366.06;;;16.36;45.63
34983;BME280;21187;50.976;13.720;2022-09-03T06:01:58;98380.22;;;16.56;45.27
34983;BME280;21187;50.976;13.720;2022-09-03T06:07:01;98381.47;;;16.80;45.41
34983;BME280;21187;50.976;13.720;2022-09-03T06:12:03;98374.16;;;17.13;45.18
34983;BME280;21187;50.976;13.720;2022-09-03T06:17:05;98374.94;;;17.39;44.91
34983;BME280;21187;50.976;13.720;2022-09-03T06:22:07;98382.00;;;17.69;44.82
34983;BME280;21187;50.976;13.720;2022-09-03T06:27:09;98387.47;;;17.98;44.57
34983;BME280;21187;50.976;13.720;2022-09-03T06:32:11;98377.22;;;18.31;44.22
34983;BME280;21187;50.976;13.720;2022-09-03T06:37:13;98385.75;;;18.51;44.02
34983;BME280;21187;50.976;13.720;2022-09-03T06:42:15;98387.28;;;18.63;43.66
34983;BME280;21187;50.976;13.720;2022-09-03T06:47:16;98389.59;;;18.75;43.45
34983;BME280;21187;50.976;13.720;2022-09-03T06:52:18;98386.38;;;18.88;43.22
34983;BME280;21187;50.976;13.720;2022-09-03T06:57:20;98389.38;;;19.19;43.03
34983;BME280;21187;50.976;13.720;2022-09-03T07:02:22;98389.97;;;19.44;42.65
34983;BME280;21187;50.976;13.720;2022-09-03T07:07:24;98386.72;;;19.60;42.57
34983;BME280;21187;50.976;13.720;2022-09-03T07:12:26;98380.66;;;19.84;42.44
34983;BME280;21187;50.976;13.720;2022-09-03T07:17:28;98376.47;;;20.10;42.09
34983;BME280;21187;50.976;13.720;2022-09-03T07:22:30;98371.84;;;20.38;41.59
34983;BME280;21187;50.976;13.720;2022-09-03T07:27:34;98365.63;;;20.65;41.20
34983;BME280;21187;50.976;13.720;2022-09-03T07:32:36;98369.63;;;20.91;40.70
34983;BME280;21187;50.976;13.720;2022-09-03T07:37:42;98365.13;;;21.04;40.60
34983;BME280;21187;50.976;13.720;2022-09-03T07:42:44;98358.50;;;21.25;40.08
34983;BME280;21187;50.976;13.720;2022-09-03T07:47:47;98357.81;;;21.45;40.14
34983;BME280;21187;50.976;13.720;2022-09-03T07:52:57;98355.03;;;21.72;39.87
34983;BME280;21187;50.976;13.720;2022-09-03T07:58:02;98354.84;;;21.83;39.32
34983;BME280;21187;50.976;13.720;2022-09-03T08:03:04;98363.75;;;21.91;39.23
34983;BME280;21187;50.976;13.720;2022-09-03T08:08:09;98356.84;;;22.23;39.02
34983;BME280;21187;50.976;13.720;2022-09-03T08:13:16;98360.13;;;22.38;38.39
34983;BME280;21187;50.976;13.720;2022-09-03T08:18:17;98358.22;;;22.55;38.39
34983;BME280;21187;50.976;13.720;2022-09-03T08:23:22;98355.22;;;22.66;38.02
34983;BME280;21187;50.976;13.720;2022-09-03T08:28:23;98355.28;;;22.82;37.91
34983;BME280;21187;50.976;13.720;2022-09-03T08:33:25;98357.78;;;22.93;37.43
34983;BME280;21187;50.976;13.720;2022-09-03T08:38:41;98347.13;;;23.12;37.17
34983;BME280;21187;50.976;13.720;2022-09-03T08:49:04;98349.91;;;23.45;36.40
34983;BME280;21187;50.976;13.720;2022-09-03T08:54:08;98351.97;;;23.57;35.95
34983;BME280;21187;50.976;13.720;2022-09-03T08:59:11;98348.69;;;23.62;35.84
34983;BME280;21187;50.976;13.720;2022-09-03T09:09:52;98332.78;;;23.66;35.12
34983;BME280;21187;50.976;13.720;2022-09-03T09:15:10;98330.75;;;23.83;34.78
34983;BME280;21187;50.976;13.720;2022-09-03T09:25:20;98331.03;;;24.18;34.33
34983;BME280;21187;50.976;13.720;2022-09-03T09:30:22;98325.22;;;24.42;34.06
34983;BME280;21187;50.976;13.720;2022-09-03T09:35:25;98323.03;;;24.50;33.84
34983;BME280;21187;50.976;13.720;2022-09-03T09:40:33;98320.50;;;24.55;33.62
34983;BME280;21187;50.976;13.720;2022-09-03T09:45:40;98315.88;;;24.65;33.63
34983;BME280;21187;50.976;13.720;2022-09-03T09:50:42;98302.16;;;24.74;33.43
34983;BME280;21187;50.976;13.720;2022-09-03T09:55:55;98302.13;;;24.87;33.12
34983;BME280;21187;50.976;13.720;2022-09-03T10:01:03;98289.63;;;24.83;32.80
34983;BME280;21187;50.976;13.720;2022-09-03T10:06:14;98300.81;;;24.92;32.48
34983;BME280;21187;50.976;13.720;2022-09-03T10:11:37;98307.78;;;24.97;32.14
34983;BME280;21187;50.976;13.720;2022-09-03T10:16:42;98305.25;;;25.02;32.18
34983;BME280;21187;50.976;13.720;2022-09-03T10:22:00;98299.66;;;25.28;31.86
34983;BME280;21187;50.976;13.720;2022-09-03T10:27:08;98287.47;;;25.38;31.44
34983;BME280;21187;50.976;13.720;2022-09-03T10:32:55;98283.66;;;25.58;31.08
34983;BME280;21187;50.976;13.720;2022-09-03T10:38:15;98284.22;;;25.53;30.95
34983;BME280;21187;50.976;13.720;2022-09-03T11:09:42;98252.47;;;26.11;29.92
34983;BME280;21187;50.976;13.720;2022-09-03T11:14:58;98257.47;;;26.26;29.63
34983;BME280;21187;50.976;13.720;2022-09-03T11:20:18;98254.66;;;26.16;29.75
34983;BME280;21187;50.976;13.720;2022-09-03T11:25:25;98248.59;;;26.08;29.36
34983;BME280;21187;50.976;13.720;2022-09-03T11:30:46;98246.19;;;26.20;29.54
34983;BME280;21187;50.976;13.720;2022-09-03T11:35:59;98243.97;;;26.37;29.33
34983;BME280;21187;50.976;13.720;2022-09-03T11:41:14;98240.31;;;26.49;28.74
34983;BME280;21187;50.976;13.720;2022-09-03T11:56:32;98247.00;;;26.30;28.38
34983;BME280;21187;50.976;13.720;2022-09-03T12:01:35;98233.97;;;26.39;28.39
34983;BME280;21187;50.976;13.720;2022-09-03T12:06:48;98236.03;;;26.26;28.74
34983;BME280;21187;50.976;13.720;2022-09-03T12:22:35;98229.50;;;26.11;28.47
34983;BME280;21187;50.976;13.720;2022-09-03T12:27:43;98227.63;;;26.39;28.38
34983;BME280;21187;50.976;13.720;2022-09-03T12:32:46;98230.84;;;26.37;28.42
34983;BME280;21187;50.976;13.720;2022-09-03T12:37:51;98221.00;;;26.46;28.04
34983;BME280;21187;50.976;13.720;2022-09-03T12:43:17;98218.22;;;26.46;27.99
34983;BME280;21187;50.976;13.720;2022-09-03T12:48:53;98217.88;;;26.34;28.19
34983;BME280;21187;50.976;13.720;2022-09-03T12:54:16;98230.22;;;26.33;28.08
34983;BME280;21187;50.976;13.720;2022-09-03T12:59:19;98218.69;;;26.44;28.14
34983;BME280;21187;50.976;13.720;2022-09-03T13:04:32;98213.41;;;26.78;27.75
34983;BME280;21187;50.976;13.720;2022-09-03T13:09:37;98212.84;;;27.01;27.43
34983;BME280;21187;50.976;13.720;2022-09-03T13:14:46;98201.75;;;27.29;27.15
34983;BME280;21187;50.976;13.720;2022-09-03T13:30:55;98198.56;;;27.59;26.70
34983;BME280;21187;50.976;13.720;2022-09-03T13:46:42;98194.59;;;26.72;27.31
34983;BME280;21187;50.976;13.720;2022-09-03T13:51:52;98187.31;;;26.75;27.18
34983;BME280;21187;50.976;13.720;2022-09-03T13:57:03;98182.69;;;26.72;27.12
34983;BME280;21187;50.976;13.720;2022-09-03T14:07:20;98181.63;;;26.79;26.85
34983;BME280;21187;50.976;13.720;2022-09-03T14:12:38;98177.03;;;26.94;26.60
34983;BME280;21187;50.976;13.720;2022-09-03T14:17:58;98165.91;;;26.94;27.02
34983;BME280;21187;50.976;13.720;2022-09-03T14:29:01;98176.41;;;26.90;26.88
34983;BME280;21187;50.976;13.720;2022-09-03T14:39:54;98177.63;;;26.80;26.80
34983;BME280;21187;50.976;13.720;2022-09-03T14:50:21;98174.53;;;26.78;26.87
34983;BME280;21187;50.976;13.720;2022-09-03T15:01:13;98172.06;;;26.80;27.01
34983;BME280;21187;50.976;13.720;2022-09-03T15:11:50;98173.81;;;26.55;27.11
34983;BME280;21187;50.976;13.720;2022-09-03T15:17:33;98170.72;;;26.44;27.31
34983;BME280;21187;50.976;13.720;2022-09-03T15:28:13;98171.88;;;26.24;27.61
34983;BME280;21187;50.976;13.720;2022-09-03T15:33:44;98167.56;;;26.23;27.48
34983;BME280;21187;50.976;13.720;2022-09-03T15:39:11;98168.44;;;26.11;27.63
34983;BME280;21187;50.976;13.720;2022-09-03T15:44:18;98172.31;;;25.91;27.80
34983;BME280;21187;50.976;13.720;2022-09-03T15:55:06;98180.06;;;25.96;27.79
34983;BME280;21187;50.976;13.720;2022-09-03T16:00:15;98180.59;;;25.82;28.02
34983;BME280;21187;50.976;13.720;2022-09-03T16:05:27;98183.88;;;25.67;28.23
34983;BME280;21187;50.976;13.720;2022-09-03T16:16:04;98177.06;;;25.59;28.75
34983;BME280;21187;50.976;13.720;2022-09-03T16:21:22;98169.31;;;25.54;28.94
34983;BME280;21187;50.976;13.720;2022-09-03T16:26:36;98174.16;;;25.40;29.36
34983;BME280;21187;50.976;13.720;2022-09-03T16:32:21;98167.94;;;25.36;29.50
34983;BME280;21187;50.976;13.720;2022-09-03T16:37:31;98186.47;;;25.27;29.43
34983;BME280;21187;50.976;13.720;2022-09-03T17:05:05;98175.59;;;24.97;30.13
34983;BME280;21187;50.976;13.720;2022-09-03T17:20:45;98174.09;;;24.70;31.24
34983;BME280;21187;50.976;13.720;2022-09-03T17:32:30;98188.69;;;24.32;31.62
34983;BME280;21187;50.976;13.720;2022-09-03T17:53:39;98192.00;;;24.01;32.23
34983;BME280;21187;50.976;13.720;2022-09-03T17:59:01;98203.97;;;23.98;32.28
34983;BME280;21187;50.976;13.720;2022-09-03T18:04:21;98202.78;;;23.83;32.78
34983;BME280;21187;50.976;13.720;2022-09-03T18:09:39;98199.59;;;23.55;33.11
34983;BME280;21187;50.976;13.720;2022-09-03T18:20:06;98228.28;;;23.15;33.98
34983;BME280;21187;50.976;13.720;2022-09-03T18:25:28;98223.41;;;23.03;34.02
34983;BME280;21187;50.976;13.720;2022-09-03T18:30:50;98241.38;;;22.94;34.08
34983;BME280;21187;50.976;13.720;2022-09-03T18:36:11;98236.03;;;22.87;33.80
34983;BME280;21187;50.976;13.720;2022-09-03T18:53:26;98240.84;;;22.50;34.93
34983;BME280;21187;50.976;13.720;2022-09-03T19:10:07;98261.00;;;22.27;35.48
34983;BME280;21187;50.976;13.720;2022-09-03T19:15:38;98250.84;;;22.24;35.70
34983;BME280;21187;50.976;13.720;2022-09-03T19:54:40;98265.81;;;21.83;36.35
34983;BME280;21187;50.976;13.720;2022-09-03T20:00:03;98269.44;;;21.80;36.48
34983;BME280;21187;50.976;13.720;2022-09-03T20:05:36;98268.25;;;21.81;36.58
34983;BME280;21187;50.976;13.720;2022-09-03T20:10:57;98278.97;;;21.75;36.63
34983;BME280;21187;50.976;13.720;2022-09-03T20:16:13;98285.81;;;21.67;37.01
34983;BME280;21187;50.976;13.720;2022-09-03T20:27:08;98291.75;;;21.41;37.62
34983;BME280;21187;50.976;13.720;2022-09-03T20:32:44;98297.31;;;21.38;37.74
34983;BME280;21187;50.976;13.720;2022-09-03T20:59:40;98303.84;;;21.24;38.20
34983;BME280;21187;50.976;13.720;2022-09-03T21:04:54;98311.00;;;21.18;38.45
34983;BME280;21187;50.976;13.720;2022-09-03T21:10:10;98311.97;;;21.07;38.61
34983;BME280;21187;50.976;13.720;2022-09-03T21:26:30;98307.06;;;20.64;39.35
34983;BME280;21187;50.976;13.720;2022-09-03T21:31:39;98308.78;;;20.51;39.69
34983;BME280;21187;50.976;13.720;2022-09-03T21:36:44;98303.03;;;20.41;39.74
34983;BME280;21187;50.976;13.720;2022-09-03T21:41:54;98305.72;;;20.45;39.97
34983;BME280;21187;50.976;13.720;2022-09-03T21:47:02;98318.25;;;20.50;39.96
34983;BME280;21187;50.976;13.720;2022-09-03T21:52:10;98320.75;;;20.40;39.87
34983;BME280;21187;50.976;13.720;2022-09-03T21:57:26;98323.94;;;20.35;39.97
34983;BME280;21187;50.976;13.720;2022-09-03T22:02:30;98339.34;;;20.29;40.16
34983;BME280;21187;50.976;13.720;2022-09-03T22:13:20;98319.41;;;20.18;40.44
34983;BME280;21187;50.976;13.720;2022-09-03T22:18:30;98321.09;;;20.11;40.48
34983;BME280;21187;50.976;13.720;2022-09-03T22:40:24;98325.75;;;20.15;41.07
34983;BME280;21187;50.976;13.720;2022-09-03T22:51:01;98325.00;;;20.10;41.13
34983;BME280;21187;50.976;13.720;2022-09-03T22:56:06;98319.53;;;20.07;41.30
34983;BME280;21187;50.976;13.720;2022-09-03T23:01:24;98321.97;;;20.01;41.62
34983;BME280;21187;50.976;13.720;2022-09-03T23:06:33;98318.84;;;19.99;41.69
34983;BME280;21187;50.976;13.720;2022-09-03T23:11:41;98321.97;;;20.01;41.65
34983;BME280;21187;50.976;13.720;2022-09-03T23:21:56;98326.00;;;19.93;41.91
34983;BME280;21187;50.976;13.720;2022-09-03T23:27:05;98328.38;;;19.91;41.83
34983;BME280;21187;50.976;13.720;2022-09-03T23:32:08;98323.69;;;19.88;42.00
34983;BME280;21187;50.976;13.720;2022-09-03T23:54:14;98333.63;;;19.74;42.72
